sensor_id;sensor_type;location;lat;lon;timestamp;pressure;altitude;pressure_sealevel;temperature;humidity
35758;BME280;21879;50.110;18.900;2022-07-29T00:06:29;98902.24;;;19.29;52.05
35758;BME280;21879;50.110;18.900;2022-07-29T00:16:58;98899.80;;;19.20;52.68
35758;BME280;21879;50.110;18.900;2022-07-29T00:27:27;98892.36;;;19.21;52.75
35758;BME280;21879;50.110;18.900;2022-07-29T00:37:56;98888.68;;;19.20;52.88
35758;BME280;21879;50.110;18.900;2022-07-29T00:48:27;98885.15;;;19.08;52.85
35758;BME280;21879;50.110;18.900;2022-07-29T00:58:58;98874.09;;;19.07;53.04
35758;BME280;21879;50.110;18.900;2022-07-29T01:09:28;98866.27;;;19.00;52.86
35758;BME280;21879;50.110;18.900;2022-07-29T01:20:16;98863.20;;;18.89;52.67
35758;BME280;21879;50.110;18.900;2022-07-29T01:30:47;98865.63;;;18.77;52.46
35758;BME280;21879;50.110;18.900;2022-07-29T01:41:20;98855.34;;;18.60;52.36
35758;BME280;21879;50.110;18.900;2022-07-29T01:51:53;98852.29;;;18.66;52.00
35758;BME280;21879;50.110;18.900;2022-07-29T02:02:23;98847.64;;;18.86;51.63
35758;BME280;21879;50.110;18.900;2022-07-29T02:12:54;98847.50;;;18.85;51.06
35758;BME280;21879;50.110;18.900;2022-07-29T02:23:24;98850.17;;;18.75;50.80
35758;BME280;21879;50.110;18.900;2022-07-29T02:33:54;98843.76;;;18.73;50.57
35758;BME280;21879;50.110;18.900;2022-07-29T02:44:25;98824.70;;;18.46;50.56
35758;BME280;21879;50.110;18.900;2022-07-29T02:55:05;98828.27;;;18.54;50.75
35758;BME280;21879;50.110;18.900;2022-07-29T03:05:38;98815.73;;;18.82;50.60
35758;BME280;21879;50.110;18.900;2022-07-29T03:16:09;98815.31;;;18.92;49.90
35758;BME280;21879;50.110;18.900;2022-07-29T03:26:40;98812.69;;;18.70;49.91
35758;BME280;21879;50.110;18.900;2022-07-29T03:37:09;98815.46;;;18.57;50.11
35758;BME280;21879;50.110;18.900;2022-07-29T03:47:42;98825.60;;;18.55;50.45
35758;BME280;21879;50.110;18.900;2022-07-29T03:58:20;98824.48;;;18.52;50.45
35758;BME280;21879;50.110;18.900;2022-07-29T04:08:49;98819.17;;;18.39;50.87
35758;BME280;21879;50.110;18.900;2022-07-29T04:19:18;98830.27;;;18.71;51.11
35758;BME280;21879;50.110;18.900;2022-07-29T04:29:47;98820.06;;;18.88;50.93
35758;BME280;21879;50.110;18.900;2022-07-29T04:40:23;98806.52;;;18.87;51.19
35758;BME280;21879;50.110;18.900;2022-07-29T04:50:52;98801.59;;;18.96;51.36
35758;BME280;21879;50.110;18.900;2022-07-29T05:01:21;98808.17;;;19.27;52.23
35758;BME280;21879;50.110;18.900;2022-07-29T05:11:51;98802.77;;;20.06;51.50
35758;BME280;21879;50.110;18.900;2022-07-29T05:22:20;98805.72;;;20.59;50.70
35758;BME280;21879;50.110;18.900;2022-07-29T05:32:49;98807.61;;;21.17;49.52
35758;BME280;21879;50.110;18.900;2022-07-29T05:43:19;98803.07;;;21.67;49.10
35758;BME280;21879;50.110;18.900;2022-07-29T05:53:49;98808.08;;;22.26;48.49
35758;BME280;21879;50.110;18.900;2022-07-29T06:04:18;98804.71;;;22.94;47.85
35758;BME280;21879;50.110;18.900;2022-07-29T06:14:48;98793.80;;;23.38;46.77
35758;BME280;21879;50.110;18.900;2022-07-29T06:25:20;98785.44;;;23.85;46.47
35758;BME280;21879;50.110;18.900;2022-07-29T06:35:50;98787.38;;;23.91;45.35
35758;BME280;21879;50.110;18.900;2022-07-29T06:46:23;98805.61;;;23.98;46.01
35758;BME280;21879;50.110;18.900;2022-07-29T06:56:52;98806.15;;;24.34;45.88
35758;BME280;21879;50.110;18.900;2022-07-29T07:07:21;98794.65;;;24.31;45.52
35758;BME280;21879;50.110;18.900;2022-07-29T07:17:50;98801.85;;;24.60;45.70
35758;BME280;21879;50.110;18.900;2022-07-29T07:28:19;98802.31;;;24.50;45.58
35758;BME280;21879;50.110;18.900;2022-07-29T07:38:50;98805.65;;;24.50;46.16
35758;BME280;21879;50.110;18.900;2022-07-29T07:49:19;98800.05;;;24.63;46.30
35758;BME280;21879;50.110;18.900;2022-07-29T07:59:48;98797.52;;;24.66;46.30
35758;BME280;21879;50.110;18.900;2022-07-29T08:10:18;98798.62;;;24.76;46.50
35758;BME280;21879;50.110;18.900;2022-07-29T08:21:01;98795.75;;;24.69;46.41
35758;BME280;21879;50.110;18.900;2022-07-29T08:31:30;98791.11;;;24.85;46.70
35758;BME280;21879;50.110;18.900;2022-07-29T08:41:59;98798.25;;;25.06;46.44
35758;BME280;21879;50.110;18.900;2022-07-29T08:52:30;98796.26;;;25.15;46.22
35758;BME280;21879;50.110;18.900;2022-07-29T09:03:01;98791.60;;;25.36;46.70
35758;BME280;21879;50.110;18.900;2022-07-29T09:13:30;98793.23;;;25.72;46.62
35758;BME280;21879;50.110;18.900;2022-07-29T09:24:08;98784.56;;;25.71;45.47
35758;BME280;21879;50.110;18.900;2022-07-29T09:34:37;98777.58;;;25.82;45.62
35758;BME280;21879;50.110;18.900;2022-07-29T09:45:08;98768.63;;;26.00;45.79
35758;BME280;21879;50.110;18.900;2022-07-29T09:55:49;98763.45;;;26.22;45.17
35758;BME280;21879;50.110;18.900;2022-07-29T10:06:19;98752.44;;;26.34;44.72
35758;BME280;21879;50.110;18.900;2022-07-29T10:16:49;98750.13;;;26.46;44.56
35758;BME280;21879;50.110;18.900;2022-07-29T10:27:18;98748.21;;;26.62;44.14
35758;BME280;21879;50.110;18.900;2022-07-29T10:38:07;98742.73;;;26.76;44.60
35758;BME280;21879;50.110;18.900;2022-07-29T10:49:05;98739.39;;;26.73;43.98
35758;BME280;21879;50.110;18.900;2022-07-29T10:59:35;98730.48;;;26.73;43.88
35758;BME280;21879;50.110;18.900;2022-07-29T11:10:24;98727.34;;;26.79;44.20
35758;BME280;21879;50.110;18.900;2022-07-29T11:20:58;98728.85;;;26.83;44.21
35758;BME280;21879;50.110;18.900;2022-07-29T11:31:40;98725.89;;;26.67;43.82
35758;BME280;21879;50.110;18.900;2022-07-29T11:42:39;98724.92;;;26.64;44.38
35758;BME280;21879;50.110;18.900;2022-07-29T11:53:14;98718.77;;;26.68;44.27
35758;BME280;21879;50.110;18.900;2022-07-29T12:03:43;98715.30;;;26.78;44.18
35758;BME280;21879;50.110;18.900;2022-07-29T12:14:27;98707.11;;;26.80;44.33
35758;BME280;21879;50.110;18.900;2022-07-29T12:25:00;98707.79;;;26.92;43.73
35758;BME280;21879;50.110;18.900;2022-07-29T12:35:53;98705.67;;;27.01;43.36
35758;BME280;21879;50.110;18.900;2022-07-29T12:46:35;98701.06;;;27.03;42.84
35758;BME280;21879;50.110;18.900;2022-07-29T12:57:06;98690.70;;;26.96;42.11
35758;BME280;21879;50.110;18.900;2022-07-29T13:07:46;98680.77;;;26.96;42.07
35758;BME280;21879;50.110;18.900;2022-07-29T13:18:30;98674.22;;;27.02;42.52
35758;BME280;21879;50.110;18.900;2022-07-29T13:28:59;98662.72;;;27.03;41.91
35758;BME280;21879;50.110;18.900;2022-07-29T13:39:28;98639.86;;;26.97;41.82
35758;BME280;21879;50.110;18.900;2022-07-29T13:49:57;98629.45;;;26.95;41.21
35758;BME280;21879;50.110;18.900;2022-07-29T14:00:27;98613.81;;;27.03;41.19
35758;BME280;21879;50.110;18.900;2022-07-29T14:10:56;98603.90;;;27.18;41.08
35758;BME280;21879;50.110;18.900;2022-07-29T14:21:25;98592.34;;;27.18;40.82
35758;BME280;21879;50.110;18.900;2022-07-29T14:31:54;98581.63;;;27.27;41.09
35758;BME280;21879;50.110;18.900;2022-07-29T14:42:23;98575.02;;;27.33;41.03
35758;BME280;21879;50.110;18.900;2022-07-29T14:52:52;98580.25;;;27.42;40.56
35758;BME280;21879;50.110;18.900;2022-07-29T15:03:22;98580.86;;;27.39;40.37
35758;BME280;21879;50.110;18.900;2022-07-29T15:13:52;98588.82;;;27.31;40.53
35758;BME280;21879;50.110;18.900;2022-07-29T15:24:21;98605.86;;;27.25;41.21
35758;BME280;21879;50.110;18.900;2022-07-29T15:34:50;98621.84;;;27.17;41.22
35758;BME280;21879;50.110;18.900;2022-07-29T15:45:19;98621.13;;;27.01;41.31
35758;BME280;21879;50.110;18.900;2022-07-29T15:55:48;98622.77;;;26.91;41.57
35758;BME280;21879;50.110;18.900;2022-07-29T16:06:17;98634.30;;;26.80;42.35
35758;BME280;21879;50.110;18.900;2022-07-29T16:16:46;98645.89;;;26.14;43.31
35758;BME280;21879;50.110;18.900;2022-07-29T16:27:15;98633.38;;;25.48;44.39
35758;BME280;21879;50.110;18.900;2022-07-29T16:37:44;98617.80;;;25.33;45.49
35758;BME280;21879;50.110;18.900;2022-07-29T16:48:14;98621.33;;;25.15;46.44
35758;BME280;21879;50.110;18.900;2022-07-29T16:58:44;98620.01;;;25.00;47.41
35758;BME280;21879;50.110;18.900;2022-07-29T17:09:13;98614.91;;;24.95;47.94
35758;BME280;21879;50.110;18.900;2022-07-29T17:19:44;98624.16;;;24.82;48.42
35758;BME280;21879;50.110;18.900;2022-07-29T17:30:13;98652.15;;;24.73;49.05
35758;BME280;21879;50.110;18.900;2022-07-29T17:40:42;98657.65;;;24.58;50.06
35758;BME280;21879;50.110;18.900;2022-07-29T17:51:11;98656.94;;;24.41;51.90
35758;BME280;21879;50.110;18.900;2022-07-29T18:01:41;98646.89;;;23.95;54.22
35758;BME280;21879;50.110;18.900;2022-07-29T18:12:11;98649.00;;;23.61;55.94
35758;BME280;21879;50.110;18.900;2022-07-29T18:22:42;98651.66;;;23.39;57.34
35758;BME280;21879;50.110;18.900;2022-07-29T18:33:11;98660.38;;;23.44;58.25
35758;BME280;21879;50.110;18.900;2022-07-29T18:43:48;98663.98;;;23.37;58.82
35758;BME280;21879;50.110;18.900;2022-07-29T18:54:17;98674.59;;;23.41;59.41
35758;BME280;21879;50.110;18.900;2022-07-29T19:04:46;98674.03;;;23.30;59.76
35758;BME280;21879;50.110;18.900;2022-07-29T19:15:17;98694.45;;;23.21;60.08
35758;BME280;21879;50.110;18.900;2022-07-29T19:25:46;98687.69;;;23.12;60.37
35758;BME280;21879;50.110;18.900;2022-07-29T19:36:20;98678.69;;;22.97;60.36
35758;BME280;21879;50.110;18.900;2022-07-29T19:46:49;98701.02;;;22.79;60.84
35758;BME280;21879;50.110;18.900;2022-07-29T19:57:18;98698.33;;;22.67;61.11
35758;BME280;21879;50.110;18.900;2022-07-29T20:07:47;98670.67;;;22.22;61.96
35758;BME280;21879;50.110;18.900;2022-07-29T20:18:16;98671.30;;;21.98;63.05
35758;BME280;21879;50.110;18.900;2022-07-29T20:28:46;98667.65;;;22.16;63.28
35758;BME280;21879;50.110;18.900;2022-07-29T20:39:15;98655.16;;;22.37;63.15
35758;BME280;21879;50.110;18.900;2022-07-29T20:49:45;98636.83;;;22.44;62.84
35758;BME280;21879;50.110;18.900;2022-07-29T21:00:16;98624.73;;;22.42;62.77
35758;BME280;21879;50.110;18.900;2022-07-29T21:10:45;98623.05;;;22.43;62.77
35758;BME280;21879;50.110;18.900;2022-07-29T21:21:15;98617.11;;;22.27;62.86
35758;BME280;21879;50.110;18.900;2022-07-29T21:31:44;98625.65;;;22.10;63.13
35758;BME280;21879;50.110;18.900;2022-07-29T21:42:13;98620.34;;;22.17;63.31
35758;BME280;21879;50.110;18.900;2022-07-29T21:52:42;98606.75;;;22.28;63.30
35758;BME280;21879;50.110;18.900;2022-07-29T22:03:11;98601.63;;;22.31;63.08
35758;BME280;21879;50.110;18.900;2022-07-29T22:13:40;98610.17;;;22.30;62.68
35758;BME280;21879;50.110;18.900;2022-07-29T22:24:09;98610.58;;;22.30;62.38
35758;BME280;21879;50.110;18.900;2022-07-29T22:34:38;98593.48;;;22.12;62.15
35758;BME280;21879;50.110;18.900;2022-07-29T22:45:09;98587.77;;;22.13;62.10
35758;BME280;21879;50.110;18.900;2022-07-29T22:55:38;98574.86;;;21.94;62.02
35758;BME280;21879;50.110;18.900;2022-07-29T23:06:07;98555.72;;;21.92;62.40
35758;BME280;21879;50.110;18.900;2022-07-29T23:16:36;98541.11;;;21.96;62.21
35758;BME280;21879;50.110;18.900;2022-07-29T23:27:05;98526.16;;;21.95;61.90
35758;BME280;21879;50.110;18.900;2022-07-29T23:37:35;98511.63;;;21.80;61.75
35758;BME280;21879;50.110;18.900;2022-07-29T23:48:04;98503.39;;;21.75;61.66
35758;BME280;21879;50.110;18.900;2022-07-29T23:58:33;98489.16;;;21.62;61.54
